Motte Rimrock Reserve, California Weather observations

Data are for 10 minute period ending at time listed.
 Day   Time   Solar   Ave.   Ave.  Ave.  Vector  Max.   Baro.   Total    
  of    of     Rad.   Air    Rel.  Wind   Wind   Wind  Press.  Precip.   
Year   Day            Temp.  Hum.  Speed  Dir.   Gust                    
2015   (PST)  Kw/m2    F      %     mph   deg.    mph    mb.     in.     
-------------------------------------------------------------------------
 181   13:00   1.02   97.6    20   10.2   318    16.7   945.8    0.00 
 181   13:10   0.74   97.3    20    9.7   309    15.6   945.7    0.00 
 181   13:20   0.55   96.9    21    9.5   290    14.5   945.8    0.00 
 181   13:30   0.48   96.4    23   11.2   184    20.2   946.0    0.00 
 181   13:40   0.33   92.1    27   21.4   164    30.1   946.2    0.00 
 181   13:50   0.25   86.6    30   23.2   180    31.4   946.3    0.00 
 181   14:00   0.18   84.2    30   21.7   186    29.7   946.2    0.00 
 181   14:10   0.10   82.3    31   23.2   178    32.4   946.9    0.00 
 181   14:20   0.05   80.3    33   24.0   180    36.0   948.0    0.00 
 181   14:30   0.04   77.0    49   27.6   185    39.9   947.9    0.00 
 181   14:40   0.02   74.9    57   19.5   200    30.8   947.8    0.00 
 181   14:50   0.03   72.3    68   17.4   217    23.1   947.1    0.03 
 181   15:00   0.04   72.1    71   11.5   203    17.9   947.0    0.00 
 181   15:10   0.08   73.5    67    7.0   189     9.5   947.1    0.00 
 181   15:20   0.13   74.4    66    5.8   187     8.0   946.8    0.00 
 181   15:30   0.18   75.0    65    8.2    97    14.8   946.9    0.00 
 181   15:40   0.18   73.8    72    9.3    94    13.9   947.0    0.00 
 181   15:50   0.20   73.4    73   10.2    74    13.3   947.1    0.00 
 181   16:00   0.21   74.0    71    8.5    67    11.4   946.9    0.00 
 181   16:10   0.21   75.0    66    4.7    49     8.3   946.9    0.00 
 181   16:20   0.20   75.6    64    3.3    66     5.6   946.7    0.00 
 181   16:30   0.19   76.4    59    3.2    51     4.5   946.4    0.00 
 181   16:40   0.19   77.1    57    3.1    28     4.9   946.2    0.00 
 181   16:50   0.20   77.6    56    2.5    28     3.8   945.9    0.00 
 181   17:00   0.18   78.2    55    2.0    48     3.6   945.8    0.00 
 181   17:10   0.14   78.3    55    2.2    50     3.7   945.6    0.00 
 181   17:20   0.15   78.9    54    1.8   348     4.2   945.4    0.00 
 181   17:30   0.18   79.5    53    3.9   295     5.3   945.3    0.00 
 181   17:40   0.17   79.6    51    6.6   294     8.9   945.2    0.00 
 181   17:50   0.16   79.6    49    6.4   299     9.8   945.2    0.00 
 181   18:00   0.09   79.8    46    7.7   297     9.3   945.1    0.00 
 181   18:10   0.06   79.5    46    5.9   295     8.4   945.1    0.00 
 181   18:20   0.04   79.3    45    5.5   298     7.5   945.1    0.00 
 181   18:30   0.03   79.2    44    5.2   292     7.2   945.1    0.00 
 181   18:40   0.03   79.1    45    3.8   292     6.1   945.0    0.00 
 181   18:50   0.01   79.0    44    3.1   297     4.5   945.0    0.00 
 181   19:00   0.01   78.4    45    2.5   278     3.7   945.0    0.00 
 181   19:10   0.01   77.9    45    1.4   275     2.1   944.9    0.00 
 181   19:20   0.01   78.2    43    1.6   280     2.3   944.9    0.00 
 181   19:30   0.00   78.3    42    2.4   273     3.0   944.8    0.00 
 181   19:40   0.00   78.1    43    0.9   251     2.1   944.9    0.00 
 181   19:50   0.00   78.3    42    1.9   176     2.9   944.9    0.00 
 181   20:00   0.00   78.7    42    2.3   162     3.0   945.0    0.00 
 181   20:10   0.00   78.7    41    1.6   152     1.9   945.1    0.00 
 181   20:20   0.00   78.8    42    1.1   143     2.0   945.1    0.00 
 181   20:30   0.00   78.6    42    1.2   156     3.0   945.1    0.00 
 181   20:40   0.00   78.2    44    2.8   179     3.1   945.0    0.00 
 181   20:50   0.00   77.7    46    3.0   170     3.6   945.0    0.00 
 181   21:00   0.00   77.1    49    4.5   149     5.3   945.4    0.00 
 181   21:10   0.00   76.4    50    4.2   163     4.8   945.4    0.00 
 181   21:20   0.00   76.4    50    4.3   190     4.7   945.4    0.00 
 181   21:30   0.00   76.7    49    4.5   210     5.0   945.3    0.00 
 181   21:40   0.00   76.9    49    4.6   201     5.0   945.4    0.00 
 181   21:50   0.00   76.7    49    4.9   208     5.4   945.3    0.00 
 181   22:00   0.00   76.4    49    3.7   238     4.2   945.4    0.00 
 181   22:10   0.00   76.8    46    3.7   250     4.2   945.4    0.00 
 181   22:20   0.00   77.1    45    4.0   238     4.5   945.3    0.00 
 181   22:30   0.00   77.3    45    3.9   237     6.0   945.2    0.00 
 181   22:40   0.00   77.9    43    2.7   199     3.8   945.4    0.00 
 181   22:50   0.00   78.2    43    1.4   161     2.2   945.4    0.00 
 181   23:00   0.00   78.3    42    1.3   162     2.2   945.4    0.00 
 181   23:10   0.00   78.0    44    2.0    85     3.8   945.6    0.00 
 181   23:20   0.00   77.7    45    2.0    62     3.7   945.6    0.00 
 181   23:30   0.00   75.8    53    4.7    23     6.1   945.5    0.00 
 181   23:40   0.00   74.9    57    3.6   355     4.8   945.4    0.00 
 181   23:50   0.00   74.2    59    3.5   325     4.6   945.3    0.00 
 182    0:00   0.00   73.2    56    4.6   304     5.9   945.4    0.00 
 182    0:10   0.00   73.2    50    6.3   297     7.7   945.5    0.00 
 182    0:20   0.00   73.6    47    6.6   300     7.8   945.5    0.00 
 182    0:30   0.00   73.9    46    7.9   300     9.7   945.3    0.00 
 182    0:40   0.00   73.7    45    7.3   304     8.6   945.4    0.00 
 182    0:50   0.00   73.8    44    6.8   304     8.0   945.5    0.00 
 182    1:00   0.00   73.5    44    5.5   316     7.7   945.6    0.00 
 182    1:10   0.00   73.7    43    5.2   321     6.6   945.7    0.00 
 182    1:20   0.00   73.9    52    4.6    47     6.5   946.1    0.00 
 182    1:30   0.00   72.8    61    5.8    86     9.6   946.3    0.00 
 182    1:40   0.00   71.5    74    6.2   110     9.6   946.5    0.00 
 182    1:50   0.00   71.3    75    8.6   106    11.8   947.0    0.00 
 182    2:00   0.00   71.7    72    6.9   112    10.3   947.0    0.00 
 182    2:10   0.00   72.2    70    3.4    92     7.7   947.0    0.00 
 182    2:20   0.00   71.9    71    2.2   136     3.7   946.8    0.00 
 182    2:30   0.00   71.6    72    4.2   300     6.3   946.3    0.00 
 182    2:40   0.00   72.0    69    4.9   344     6.6   946.4    0.00 
 182    2:50   0.00   72.8    67    6.1     4     8.1   946.6    0.00 
 182    3:00   0.00   71.6    72    6.5   346     7.7   946.6    0.00 
 182    3:10   0.00   72.0    68    7.0   338     8.5   946.4    0.00 
 182    3:20   0.00   71.2    72    8.5   303    11.6   946.3    0.00 
 182    3:30   0.00   70.8    70    8.3   299    11.1   946.3    0.00 
 182    3:40   0.00   70.9    65    7.4   299     9.9   946.5    0.00 
 182    3:50   0.00   71.6    59    5.3   310     7.5   946.6    0.00 
 182    4:00   0.00   72.5    54    6.5   303     8.7   946.5    0.00 
 182    4:10   0.00   72.9    53    7.7   296     9.1   946.3    0.00 
 182    4:20   0.00   73.2    51    4.3   288     6.8   946.3    0.00 
 182    4:30   0.00   73.3    50    3.6   256     5.3   946.3    0.00 
 182    4:40   0.00   72.0    57    4.3   214     5.4   946.2    0.00 
 182    4:50   0.00   72.2    57    1.3   232     3.2   946.3    0.00 
 182    5:00   0.00   72.6    53    2.3    77     4.5   946.5    0.00 
 182    5:10   0.01   73.4    51    3.7    74     4.7   946.4    0.00 
 182    5:20   0.02   72.8    55    4.7    62     5.6   946.4    0.00 
 182    5:30   0.04   72.4    59    3.6    80     4.7   946.4    0.00 
 182    5:40   0.07   73.0    58    5.0    63     6.1   946.4    0.00 
 182    5:50   0.12   72.4    70    7.8    42     9.6   946.4    0.00 
 182    6:00   0.15   72.4    68    6.1    45     8.5   946.4    0.00 
 182    6:10   0.21   74.6    59    4.0    46     5.9   946.5    0.00 
 182    6:20   0.16   76.2    53    0.8    18     2.7   946.5    0.00 
 182    6:30   0.10   76.5    49    3.1   100     5.4   946.7    0.00 
 182    6:40   0.07   75.7    53    3.4   115     4.7   947.1    0.00 
 182    6:50   0.09   75.8    54    0.7   150     2.4   947.1    0.00 
 182    7:00   0.12   76.0    54    4.1   184     6.1   947.3    0.00 
 182    7:10   0.11   75.4    58    6.5   181     8.4   947.3    0.00 
 182    7:20   0.17   75.3    60    6.0   180     7.9   947.4    0.00 
 182    7:30   0.22   75.8    58    7.2   178     9.3   947.5    0.00 
 182    7:40   0.20   76.6    57    6.4   188     8.7   947.7    0.00 
 182    7:50   0.45   77.6    55    5.9   216     8.3   947.7    0.00 
 182    8:00   0.60   79.4    50    5.3   217     8.0   947.6    0.00 
 182    8:10   0.43   80.6    44    4.1   221     6.6   947.5    0.00 
 182    8:20   0.21   81.4    39    1.9   206     3.6   947.5    0.00 
 182    8:30   0.18   82.0    37    1.7     9     4.9   947.4    0.00 
 182    8:40   0.13   81.8    39    3.8    76     5.8   947.4    0.00 
 182    8:50   0.15   81.5    41    3.7    75     6.7   947.4    0.00 
 182    9:00   0.31   81.4    44    5.6    79     8.3   947.5    0.00 
 182    9:10   0.35   82.0    45    2.2    61     4.7   947.5    0.00 
 182    9:20   0.37   82.2    46    3.7   327     7.8   947.2    0.00 
 182    9:30   0.21   82.5    46    2.7   334     5.2   947.2    0.00 
 182    9:40   0.26   82.5    46    3.2    33     7.0   947.5    0.00 
 182    9:50   0.35   82.5    46    4.4     4     8.0   947.2    0.00 
 182   10:00   0.49   83.1    46    4.4    21     9.9   947.2    0.00 
 182   10:10   0.49   83.6    45    1.4   324     3.3   947.2    0.00 
 182   10:20   0.46   83.9    45    6.5    21    11.0   947.2    0.00 
 182   10:30   0.39   84.0    44    6.1   351    11.8   947.0    0.00 
 182   10:40   0.38   84.1    45    6.0    16    10.8   947.0    0.00 
 182   10:50   0.37   84.4    44    5.2    42     8.8   947.0    0.00 
 182   11:00   0.32   84.6    44    5.2    16    10.0   947.0    0.00 
 182   11:10   0.33   84.3    44    8.4   327    14.2   946.6    0.00 
 182   11:20   0.32   84.1    44   10.0   309    12.8   946.4    0.00 
 182   11:30   0.29   84.0    43   11.3   297    14.0   946.1    0.00 
 182   11:40   0.24   84.1    42   12.3   298    15.3   945.7    0.00 
 182   11:50   0.24   84.3    41   10.6   296    16.2   945.8    0.00 
 182   12:00   0.31   84.9    39    9.2   311    11.8   946.0    0.00 
 182   12:10   0.52   86.0    37    7.7   305    11.7   946.3    0.00 
 182   12:20   0.36   86.2    36    8.1   309    11.5   946.2    0.00 
 182   12:30   0.26   85.9    36    8.3   304    11.5   946.2    0.00 
 182   12:40   0.28   85.6    36    6.8   305    10.6   946.3    0.00 
 182   12:50   0.31   85.8    36    7.6   291     9.7   946.4    0.00 

Return to Motte Rimrock Reserve graphs page.


Western Regional Climate Center,wrcc@dri.edu